createdAt,value
2023-03-18T00:02:27.994Z,100036.72
2023-03-18T00:05:30.854Z,100042.91
2023-03-18T00:08:32.822Z,100046.34
2023-03-18T00:11:34.239Z,100049.09
2023-03-18T00:14:37.824Z,100053.44
2023-03-18T00:17:41.141Z,100054.56
2023-03-18T00:20:43.056Z,100062.56
2023-03-18T00:23:44.453Z,100059.09
2023-03-18T00:26:46.336Z,100061.66
2023-03-18T00:29:47.842Z,100066.19
2023-03-18T00:32:49.637Z,100060.09
2023-03-18T00:35:51.162Z,100061.88
2023-03-18T00:38:57.454Z,100071.69
2023-03-18T00:41:58.980Z,100075.25
2023-03-18T00:45:00.484Z,100075.38
2023-03-18T00:48:01.915Z,100075.47
2023-03-18T00:51:03.802Z,100082.47
2023-03-18T00:54:07.857Z,100075.47
2023-03-18T00:57:10.778Z,100075.41
2023-03-18T01:00:12.976Z,100074.50
2023-03-18T01:03:15.197Z,100077.91
2023-03-18T01:06:23.332Z,100084.19
2023-03-18T01:09:24.860Z,100078.06
2023-03-18T01:12:26.279Z,100084.22
2023-03-18T01:15:28.208Z,100065.84
2023-03-18T01:18:29.994Z,100084.19
2023-03-18T01:21:31.974Z,100070.31
2023-03-18T01:24:36.441Z,100073.97
2023-03-18T01:27:38.554Z,100087.94
2023-03-18T01:30:40.897Z,100078.41
2023-03-18T01:33:42.363Z,100074.09
2023-03-18T01:36:44.203Z,100078.44
2023-03-18T01:39:46.575Z,100077.63
2023-03-18T01:43:13.574Z,100076.91
2023-03-18T01:46:33.039Z,100078.78
2023-03-18T01:49:38.792Z,100074.38
2023-03-18T01:52:41.583Z,100076.81
2023-03-18T01:55:45.272Z,100065.47
2023-03-18T01:58:53.714Z,100071.47
2023-03-18T02:02:02.755Z,100075.13
2023-03-18T02:05:11.137Z,100062.75
2023-03-18T02:08:12.978Z,100065.78
2023-03-18T02:11:15.863Z,100063.44
2023-03-18T02:14:21.834Z,100064.50
2023-03-18T02:17:27.033Z,100062.75
2023-03-18T02:20:34.310Z,100066.94
2023-03-18T02:23:50.869Z,100069.75
2023-03-18T02:27:16.149Z,100068.22
2023-03-18T02:30:27.003Z,100069.16
2023-03-18T02:33:34.479Z,100080.81
2023-03-18T02:36:37.157Z,100075.59
2023-03-18T02:39:42.668Z,100083.09
2023-03-18T02:42:46.590Z,100089.56
2023-03-18T02:46:05.330Z,100095.41
2023-03-18T02:49:08.064Z,100086.78
2023-03-18T02:52:09.992Z,100083.44
2023-03-18T02:55:11.394Z,100093.84
2023-03-18T02:58:12.922Z,100095.56
2023-03-18T03:01:15.930Z,100105.16
2023-03-18T03:04:18.769Z,100098.84
2023-03-18T03:07:20.424Z,100090.84
2023-03-18T03:10:26.138Z,100092.84
2023-03-18T03:13:27.787Z,100091.31
2023-03-18T03:16:29.661Z,100088.50
2023-03-18T03:19:32.008Z,100089.34
2023-03-18T03:22:34.160Z,100084.94
2023-03-18T03:25:36.453Z,100097.19
2023-03-18T03:28:38.108Z,100098.72
2023-03-18T03:31:39.683Z,100106.56
2023-03-18T03:34:41.529Z,100109.03
2023-03-18T03:37:46.854Z,100106.34
2023-03-18T03:40:48.487Z,100106.34
2023-03-18T03:43:50.440Z,100106.56
2023-03-18T03:46:51.942Z,100109.16
2023-03-18T03:49:54.376Z,100104.63
2023-03-18T03:52:55.964Z,100103.66
2023-03-18T03:55:59.233Z,100113.22
2023-03-18T03:59:01.444Z,100108.81
2023-03-18T04:02:23.607Z,100109.63
2023-03-18T04:05:25.792Z,100111.38
2023-03-18T04:08:27.524Z,100117.28
2023-03-18T04:11:29.786Z,100116.13
2023-03-18T04:14:31.727Z,100118.53
2023-03-18T04:17:34.662Z,100123.56
2023-03-18T04:20:38.057Z,100123.94
2023-03-18T04:23:47.769Z,100118.88
2023-03-18T04:26:51.539Z,100118.97
2023-03-18T04:29:52.990Z,100118.22
2023-03-18T04:33:03.148Z,100116.44
2023-03-18T04:36:06.379Z,100118.03
2023-03-18T04:39:09.555Z,100120.53
2023-03-18T04:42:11.469Z,100118.88
2023-03-18T04:45:14.023Z,100131.03
2023-03-18T04:48:15.587Z,100124.97
2023-03-18T04:51:20.594Z,100128.44
2023-03-18T04:54:22.500Z,100124.03
2023-03-18T04:57:27.616Z,100127.84
2023-03-18T05:00:30.131Z,100120.88
2023-03-18T05:03:45.320Z,100117.44
2023-03-18T05:06:49.260Z,100125.53
2023-03-18T05:09:50.713Z,100121.16
2023-03-18T05:12:53.279Z,100128.09
2023-03-18T05:16:02.559Z,100139.47
2023-03-18T05:19:04.437Z,100131.44
2023-03-18T05:22:06.922Z,100140.19
2023-03-18T05:25:11.435Z,100142.59
2023-03-18T05:28:14.249Z,100137.38
2023-03-18T05:31:26.327Z,100140.88
2023-03-18T05:34:28.244Z,100138.25
2023-03-18T05:37:29.851Z,100137.69
2023-03-18T05:40:37.538Z,100138.59
2023-03-18T05:43:46.214Z,100138.59
2023-03-18T05:46:47.799Z,100136.91
2023-03-18T05:50:00.049Z,100142.38
2023-03-18T05:53:03.819Z,100138.22
2023-03-18T05:56:10.400Z,100142.97
2023-03-18T05:59:14.065Z,100144.81
2023-03-18T06:02:21.790Z,100147.44
2023-03-18T06:05:24.296Z,100150.94
2023-03-18T06:08:25.744Z,100146.53
2023-03-18T06:11:29.290Z,100148.25
2023-03-18T06:14:31.334Z,100146.44
2023-03-18T06:17:36.567Z,100156.84
2023-03-18T06:20:38.108Z,100151.53
2023-03-18T06:23:39.561Z,100158.16
2023-03-18T06:26:41.690Z,100152.84
2023-03-18T06:29:44.071Z,100160.53
2023-03-18T06:32:49.304Z,100159.50
2023-03-18T06:35:52.507Z,100161.06
2023-03-18T06:38:55.851Z,100159.09
2023-03-18T06:41:59.501Z,100164.25
2023-03-18T06:45:05.691Z,100164.38
2023-03-18T06:48:19.793Z,100165.94
2023-03-18T06:51:23.021Z,100172.09
2023-03-18T06:54:26.200Z,100167.59
2023-03-18T06:57:28.928Z,100165.97
2023-03-18T07:00:32.510Z,100178.25
2023-03-18T07:03:35.689Z,100180.06
2023-03-18T07:06:37.960Z,100178.38
2023-03-18T07:09:39.464Z,100181.69
2023-03-18T07:12:41.026Z,100181.47
2023-03-18T07:15:42.901Z,100194.56
2023-03-18T07:18:44.709Z,100188.91
2023-03-18T07:21:47.436Z,100189.00
2023-03-18T07:24:49.166Z,100201.44
2023-03-18T07:27:50.632Z,100202.16
2023-03-18T07:30:54.357Z,100196.41
2023-03-18T07:33:57.260Z,100205.00
2023-03-18T07:36:58.902Z,100209.16
2023-03-18T07:40:00.406Z,100210.09
2023-03-18T07:43:01.868Z,100208.28
2023-03-18T07:46:04.477Z,100210.47
2023-03-18T07:49:05.961Z,100201.06
2023-03-18T07:52:08.644Z,100205.44
2023-03-18T07:55:11.874Z,100205.47
2023-03-18T07:58:13.599Z,100200.78
2023-03-18T08:01:18.258Z,100203.50
2023-03-18T08:04:19.928Z,100201.03
2023-03-18T08:07:22.935Z,100202.00
2023-03-18T08:10:25.318Z,100199.22
2023-03-18T08:13:26.979Z,100207.94
2023-03-18T08:16:28.598Z,100211.94
2023-03-18T08:19:30.177Z,100203.28
2023-03-18T08:22:31.925Z,100215.75
2023-03-18T08:25:33.545Z,100205.94
2023-03-18T08:28:35.067Z,100204.97
2023-03-18T08:31:36.570Z,100204.81
2023-03-18T08:34:38.137Z,100207.91
2023-03-18T08:37:39.573Z,100212.28
2023-03-18T08:40:42.303Z,100211.97
2023-03-18T08:43:44.991Z,100204.78
2023-03-18T08:46:46.487Z,100210.84
2023-03-18T08:49:50.366Z,100217.31
2023-03-18T08:52:52.763Z,100211.22
2023-03-18T08:55:54.260Z,100218.69
2023-03-18T08:58:56.034Z,100211.75
2023-03-18T09:01:57.673Z,100215.13
2023-03-18T09:04:59.112Z,100210.63
2023-03-18T09:08:00.515Z,100206.88
2023-03-18T09:11:02.111Z,100207.56
2023-03-18T09:14:04.833Z,100193.41
2023-03-18T09:17:06.595Z,100199.56
2023-03-18T09:20:10.810Z,100197.53
2023-03-18T09:23:14.268Z,100196.13
2023-03-18T09:26:16.897Z,100193.75
2023-03-18T09:29:18.305Z,100186.22
2023-03-18T09:32:20.136Z,100187.13
2023-03-18T09:35:21.757Z,100171.84
2023-03-18T09:38:23.638Z,100171.00
2023-03-18T09:41:49.531Z,100171.03
2023-03-18T09:44:56.781Z,100171.97
2023-03-18T09:48:38.828Z,100162.94
2023-03-18T09:52:07.051Z,100159.72
2023-03-18T09:55:11.527Z,100151.66
2023-03-18T09:58:44.932Z,100143.69
2023-03-18T10:01:50.531Z,100151.25
2023-03-18T10:04:58.406Z,100153.06
2023-03-18T10:08:07.616Z,100151.97
2023-03-18T10:11:36.047Z,100149.41
2023-03-18T10:14:45.858Z,100157.66
2023-03-18T10:18:11.515Z,100152.22
2023-03-18T10:21:31.108Z,100154.06
2023-03-18T10:24:40.540Z,100149.03
2023-03-18T10:27:47.896Z,100144.56
2023-03-18T10:31:11.168Z,100143.22
2023-03-18T10:34:49.121Z,100144.41
2023-03-18T10:37:54.455Z,100134.59
2023-03-18T10:40:56.279Z,100138.66
2023-03-18T10:44:02.899Z,100139.38
2023-03-18T10:47:18.934Z,100145.03
2023-03-18T10:50:28.518Z,100152.97
2023-03-18T10:53:39.814Z,100145.94
2023-03-18T10:56:41.850Z,100149.72
2023-03-18T10:59:47.577Z,100145.91
2023-03-18T11:02:49.733Z,100146.75
2023-03-18T11:05:52.544Z,100136.31
2023-03-18T11:09:04.924Z,100140.28
2023-03-18T11:12:19.379Z,100140.69
2023-03-18T11:15:21.013Z,100134.06
2023-03-18T11:18:25.767Z,100132.75
2023-03-18T11:21:29.244Z,100134.34
2023-03-18T11:24:39.521Z,100136.59
2023-03-18T11:27:51.090Z,100138.88
2023-03-18T11:30:57.446Z,100135.66
2023-03-18T11:33:59.201Z,100127.66
2023-03-18T11:37:05.899Z,100126.38
2023-03-18T11:40:18.280Z,100124.00
2023-03-18T11:43:22.842Z,100121.66
2023-03-18T11:46:27.577Z,100124.16
2023-03-18T11:49:31.201Z,100118.69
2023-03-18T11:52:55.947Z,100109.78
2023-03-18T11:56:21.451Z,100105.72
2023-03-18T11:59:56.320Z,100111.88
2023-03-18T12:03:25.352Z,100106.50
2023-03-18T12:06:33.003Z,100098.00
2023-03-18T12:09:43.761Z,100093.16
2023-03-18T12:12:59.765Z,100107.72
2023-03-18T12:16:41.223Z,100099.56
2023-03-18T12:19:56.939Z,100095.16
2023-03-18T12:23:03.248Z,100091.25
2023-03-18T12:26:09.454Z,100084.25
2023-03-18T12:29:45.833Z,100079.31
2023-03-18T12:33:06.291Z,100087.69
2023-03-18T12:36:50.053Z,100088.34
2023-03-18T12:40:21.328Z,100080.66
2023-03-18T12:43:31.793Z,100084.59
2023-03-18T12:46:42.121Z,100081.66
2023-03-18T12:49:58.587Z,100081.53
2023-03-18T12:53:03.352Z,100077.19
2023-03-18T12:56:12.377Z,100073.16
2023-03-18T12:59:27.532Z,100070.72
2023-03-18T13:02:47.808Z,100071.28
2023-03-18T13:05:54.407Z,100059.63
2023-03-18T13:09:17.100Z,100058.06
2023-03-18T13:12:35.222Z,100049.91
2023-03-18T13:15:46.249Z,100057.31
2023-03-18T13:18:51.921Z,100052.22
2023-03-18T13:22:18.223Z,100060.72
2023-03-18T13:26:01.581Z,100050.59
2023-03-18T13:29:31.284Z,100050.56
2023-03-18T13:33:01.164Z,100044.34
2023-03-18T13:36:39.082Z,100046.44
2023-03-18T13:40:09.346Z,100040.56
2023-03-18T13:43:17.344Z,100043.03
2023-03-18T13:46:23.601Z,100045.44
2023-03-18T13:49:29.754Z,100044.22
2023-03-18T13:52:44.820Z,100038.00
2023-03-18T13:55:57.579Z,100037.41
2023-03-18T13:59:05.672Z,100029.63
2023-03-18T14:02:31.097Z,100025.19
2023-03-18T14:05:33.210Z,100037.16
2023-03-18T14:08:39.143Z,100031.28
2023-03-18T14:11:46.810Z,100036.78
2023-03-18T14:14:48.166Z,100029.41
2023-03-18T14:17:56.912Z,100031.13
2023-03-18T14:21:02.604Z,100027.81
2023-03-18T14:24:21.888Z,100024.50
2023-03-18T14:27:23.391Z,100025.94
2023-03-18T14:30:31.687Z,100028.16
2023-03-18T14:33:35.155Z,100023.34
2023-03-18T14:36:53.643Z,100015.41
2023-03-18T14:40:00.895Z,100018.50
2023-03-18T14:43:10.248Z,100018.88
2023-03-18T14:46:18.854Z,100023.59
2023-03-18T14:49:44.674Z,100013.28
2023-03-18T14:52:54.414Z,100009.19
2023-03-18T14:55:58.703Z,100012.81
2023-03-18T14:59:00.973Z,100005.28
2023-03-18T15:02:06.532Z,100009.41
2023-03-18T15:05:10.543Z,100001.75
2023-03-18T15:08:21.019Z,100000.41
2023-03-18T15:11:23.687Z,100002.81
2023-03-18T15:14:32.011Z,100004.31
2023-03-18T15:17:33.482Z,99997.63
2023-03-18T15:20:36.254Z,99999.63
2023-03-18T15:23:45.610Z,100004.75
2023-03-18T15:26:56.879Z,99998.19
2023-03-18T15:30:00.907Z,100000.94
2023-03-18T15:33:20.454Z,99996.81
2023-03-18T15:36:21.852Z,100001.44
2023-03-18T15:39:32.058Z,99995.28
2023-03-18T15:42:34.571Z,99986.25
2023-03-18T15:45:40.995Z,99987.13
2023-03-18T15:48:46.503Z,99982.91
2023-03-18T15:51:49.572Z,99981.06
2023-03-18T15:54:52.012Z,99983.09
2023-03-18T15:57:53.782Z,99979.84
2023-03-18T16:00:56.686Z,99976.09
2023-03-18T16:03:58.107Z,99974.13
2023-03-18T16:06:59.623Z,99983.47
2023-03-18T16:10:01.538Z,99974.97
2023-03-18T16:13:04.257Z,99981.84
2023-03-18T16:16:06.266Z,99983.56
2023-03-18T16:19:25.671Z,99983.38
2023-03-18T16:22:27.629Z,99987.97
2023-03-18T16:25:29.020Z,99992.50
2023-03-18T16:28:30.827Z,99987.88
2023-03-18T16:31:32.917Z,100002.44
2023-03-18T16:34:34.813Z,99999.63
2023-03-18T16:37:36.227Z,100002.09
2023-03-18T16:40:37.660Z,100009.03
2023-03-18T16:43:39.102Z,100007.75
2023-03-18T16:46:41.522Z,100013.41
2023-03-18T16:49:43.338Z,100015.91
2023-03-18T16:52:47.363Z,100015.47
2023-03-18T16:55:55.567Z,100013.25
2023-03-18T16:58:57.857Z,100022.13
2023-03-18T17:02:00.321Z,100016.69
2023-03-18T17:05:01.996Z,100030.13
2023-03-18T17:08:03.387Z,100031.75
2023-03-18T17:11:05.257Z,100039.72
2023-03-18T17:14:11.100Z,100043.22
2023-03-18T17:17:30.548Z,100036.81
2023-03-18T17:20:32.452Z,100041.59
2023-03-18T17:23:34.521Z,100043.72
2023-03-18T17:26:36.024Z,100047.00
2023-03-18T17:29:37.487Z,100041.88
2023-03-18T17:32:39.699Z,100046.88
2023-03-18T17:35:41.129Z,100045.03
2023-03-18T17:38:42.627Z,100035.38
2023-03-18T17:41:44.086Z,100040.34
2023-03-18T17:44:45.526Z,100043.59
2023-03-18T17:47:47.521Z,100046.66
2023-03-18T17:50:51.655Z,100051.56
2023-03-18T17:53:59.002Z,100050.13
2023-03-18T17:57:00.402Z,100043.63
2023-03-18T18:00:01.843Z,100041.97
2023-03-18T18:03:19.306Z,100039.69
2023-03-18T18:06:28.840Z,100032.97
2023-03-18T18:09:30.364Z,100045.97
2023-03-18T18:12:31.763Z,100042.66
2023-03-18T18:15:33.417Z,100045.59
2023-03-18T18:18:36.303Z,100043.88
2023-03-18T18:21:37.799Z,100046.53
2023-03-18T18:24:39.220Z,100057.63
2023-03-18T18:27:41.634Z,100054.97
2023-03-18T18:30:43.021Z,100066.81
2023-03-18T18:33:45.861Z,100066.41
2023-03-18T18:36:48.627Z,100067.72
2023-03-18T18:39:50.020Z,100074.25
2023-03-18T18:42:51.619Z,100073.66
2023-03-18T18:45:54.563Z,100068.78
2023-03-18T18:48:56.439Z,100070.00
2023-03-18T18:52:00.155Z,100072.06
2023-03-18T18:55:01.588Z,100074.56
2023-03-18T18:58:04.226Z,100086.56
2023-03-18T19:01:06.136Z,100082.47
2023-03-18T19:04:14.485Z,100084.41
2023-03-18T19:07:16.111Z,100084.66
2023-03-18T19:10:18.241Z,100086.81
2023-03-18T19:13:19.697Z,100082.44
2023-03-18T19:16:33.969Z,100083.28
2023-03-18T19:19:35.539Z,100079.44
2023-03-18T19:22:36.999Z,100074.06
2023-03-18T19:25:38.444Z,100078.19
2023-03-18T19:28:58.380Z,100077.16
2023-03-18T19:32:03.470Z,100085.22
2023-03-18T19:35:05.523Z,100090.66
2023-03-18T19:38:08.169Z,100080.06
2023-03-18T19:41:09.580Z,100086.06
2023-03-18T19:44:20.396Z,100082.69
2023-03-18T19:47:28.057Z,100086.66
2023-03-18T19:50:29.476Z,100085.06
2023-03-18T19:53:31.416Z,100079.44
2023-03-18T19:56:32.797Z,100087.84
2023-03-18T19:59:39.337Z,100091.16
2023-03-18T20:02:41.250Z,100091.41
2023-03-18T20:05:42.774Z,100091.56
2023-03-18T20:08:44.388Z,100095.94
2023-03-18T20:11:48.578Z,100098.16
2023-03-18T20:14:50.576Z,100105.63
2023-03-18T20:17:52.502Z,100108.63
2023-03-18T20:20:54.059Z,100115.44
2023-03-18T20:24:00.913Z,100112.72
2023-03-18T20:27:02.316Z,100119.22
2023-03-18T20:30:30.247Z,100112.06
2023-03-18T20:33:32.469Z,100113.59
2023-03-18T20:36:33.949Z,100108.63
2023-03-18T20:39:35.525Z,100111.88
2023-03-18T20:42:37.052Z,100115.63
2023-03-18T20:45:38.521Z,100128.66
2023-03-18T20:48:40.888Z,100127.06
2023-03-18T20:51:42.436Z,100135.94
2023-03-18T20:54:43.903Z,100128.75
2023-03-18T20:57:45.715Z,100119.19
2023-03-18T21:00:47.434Z,100127.38
2023-03-18T21:03:48.938Z,100132.75
2023-03-18T21:06:50.404Z,100131.88
2023-03-18T21:09:52.091Z,100136.41
2023-03-18T21:12:53.748Z,100125.78
2023-03-18T21:15:56.907Z,100126.84
2023-03-18T21:18:58.282Z,100121.47
2023-03-18T21:22:00.242Z,100123.47
2023-03-18T21:25:01.751Z,100123.00
2023-03-18T21:28:03.463Z,100134.47
2023-03-18T21:31:20.327Z,100133.06
2023-03-18T21:34:22.332Z,100139.53
2023-03-18T21:37:26.418Z,100137.03
2023-03-18T21:40:27.939Z,100131.97
2023-03-18T21:43:33.620Z,100131.97
2023-03-18T21:46:35.170Z,100132.91
2023-03-18T21:49:36.587Z,100138.44
2023-03-18T21:52:38.606Z,100141.53
2023-03-18T21:55:39.977Z,100143.63
2023-03-18T21:58:41.375Z,100148.38
2023-03-18T22:01:42.909Z,100153.09
2023-03-18T22:04:44.369Z,100150.56
2023-03-18T22:07:46.070Z,100151.91
2023-03-18T22:10:49.680Z,100153.00
2023-03-18T22:13:51.160Z,100148.84
2023-03-18T22:16:52.583Z,100154.19
2023-03-18T22:19:55.593Z,100152.63
2023-03-18T22:22:57.096Z,100150.47
2023-03-18T22:25:58.613Z,100149.41
2023-03-18T22:29:00.012Z,100156.84
2023-03-18T22:32:01.394Z,100151.03
2023-03-18T22:35:07.011Z,100155.56
2023-03-18T22:38:13.780Z,100156.88
2023-03-18T22:41:21.643Z,100159.69
2023-03-18T22:44:24.108Z,100163.25
2023-03-18T22:47:26.162Z,100168.09
2023-03-18T22:50:30.458Z,100184.34
2023-03-18T22:53:38.447Z,100173.44
2023-03-18T22:56:39.832Z,100175.69
2023-03-18T22:59:41.215Z,100177.03
2023-03-18T23:02:42.749Z,100180.81
2023-03-18T23:05:45.943Z,100187.06
2023-03-18T23:08:47.854Z,100185.81
2023-03-18T23:11:49.355Z,100188.78
2023-03-18T23:14:50.848Z,100192.59
2023-03-18T23:17:52.325Z,100187.44
2023-03-18T23:20:53.789Z,100190.44
2023-03-18T23:23:56.137Z,100185.91
2023-03-18T23:26:57.657Z,100188.59
2023-03-18T23:29:59.036Z,100188.28
2023-03-18T23:33:00.847Z,100189.28
2023-03-18T23:36:02.600Z,100176.63
2023-03-18T23:39:04.036Z,100178.84
2023-03-18T23:42:06.129Z,100190.16
2023-03-18T23:45:08.315Z,100196.22
2023-03-18T23:48:09.907Z,100190.78
2023-03-18T23:51:11.295Z,100185.41
2023-03-18T23:54:12.936Z,100183.50
2023-03-18T23:57:14.372Z,100190.97
